Time;durP1;ratioP1;P1;durP2;ratioP2;P2;SDS_P1;SDS_P2;PMS_P1;PMS_P2;Temp;Humidity;BMP_temperature;BMP_pressure;BME280_temperature;BME280_humidity;BME280_pressure;Samples;Min_cycle;Max_cycle;Signal;HPM_P1;HPM_P2
2021/10/25 00:09:26;;;;;;;5.70;2.97;;;8.20;99.90;;;;;;20429677;29;20067;-42
2021/10/25 00:19:28;;;;;;;7.10;3.33;;;8.20;99.90;;;;;;20424106;28;20047;-42
2021/10/25 00:29:29;;;;;;;8.25;2.90;;;8.20;99.90;;;;;;20430004;28;20039;-42
2021/10/25 00:39:32;;;;;;;7.38;3.38;;;8.20;99.90;;;;;;20410384;28;20301;-42
2021/10/25 00:49:33;;;;;;;7.43;3.22;;;8.20;99.90;;;;;;20415807;28;20055;-42
2021/10/25 00:59:34;;;;;;;11.55;3.67;;;8.30;99.90;;;;;;20420954;28;20635;-42
2021/10/25 01:09:36;;;;;;;6.53;2.97;;;8.40;99.90;;;;;;20410284;28;20039;-42
2021/10/25 01:19:37;;;;;;;6.32;3.00;;;8.60;99.90;;;;;;20427939;29;20051;-42
2021/10/25 01:29:40;;;;;;;5.95;3.20;;;8.70;99.90;;;;;;20420779;28;20691;-42
2021/10/25 01:39:41;;;;;;;9.52;3.03;;;8.70;99.90;;;;;;20408005;28;20052;-42
2021/10/25 01:49:43;;;;;;;6.78;2.72;;;8.80;99.90;;;;;;20419788;28;20433;-42
2021/10/25 01:59:44;;;;;;;7.40;3.42;;;8.90;99.90;;;;;;20421124;28;20062;-42
2021/10/25 02:09:46;;;;;;;6.10;3.10;;;9.00;99.90;;;;;;20441050;28;20043;-42
2021/10/25 02:19:49;;;;;;;6.38;2.58;;;9.10;99.90;;;;;;20429877;28;20054;-42
2021/10/25 02:29:50;;;;;;;5.70;2.72;;;9.10;99.90;;;;;;20435233;28;20066;-42
2021/10/25 02:39:51;;;;;;;8.50;3.17;;;9.10;99.90;;;;;;20438361;28;20050;-42
2021/10/25 02:49:52;;;;;;;9.88;3.65;;;9.20;99.90;;;;;;20425194;28;20501;-42
2021/10/25 02:59:54;;;;;;;9.88;4.05;;;9.20;99.90;;;;;;20428935;28;20051;-42
2021/10/25 03:09:55;;;;;;;4.85;2.53;;;9.20;99.90;;;;;;20434074;28;20047;-42
2021/10/25 03:19:56;;;;;;;6.10;2.50;;;9.20;99.90;;;;;;20421162;28;20506;-42
2021/10/25 03:29:59;;;;;;;6.07;2.53;;;9.40;99.90;;;;;;20426526;28;20051;-42
2021/10/25 03:40:00;;;;;;;7.53;2.88;;;9.30;99.90;;;;;;20424175;28;20059;-42
2021/10/25 03:50:11;;;;;;;5.85;2.75;;;9.50;99.90;;;;;;20429008;28;20032;-42
2021/10/25 04:31:00;;;;;;;8.18;4.25;;;9.50;99.90;;;;;;20421840;28;20094;-42
2021/10/25 04:41:01;;;;;;;7.78;3.60;;;9.50;99.90;;;;;;20403827;28;20503;-42
2021/10/25 04:51:02;;;;;;;7.93;3.17;;;9.40;99.90;;;;;;20433220;29;20035;-42
2021/10/25 05:01:03;;;;;;;7.05;3.25;;;9.40;99.90;;;;;;20427739;29;20043;-42
2021/10/25 05:11:04;;;;;;;7.45;3.78;;;9.40;99.90;;;;;;20409528;28;20043;-42
2021/10/25 05:21:06;;;;;;;9.15;3.67;;;9.30;99.90;;;;;;20419449;28;20054;-42
2021/10/25 05:31:11;;;;;;;7.88;4.70;;;9.30;99.90;;;;;;20428226;28;20039;-42
2021/10/25 05:41:13;;;;;;;9.02;4.10;;;9.40;99.90;;;;;;20439247;29;20047;-42
2021/10/25 05:51:15;;;;;;;8.93;3.17;;;9.50;99.90;;;;;;20427652;28;20581;-42
2021/10/25 06:01:18;;;;;;;10.00;3.63;;;9.50;99.90;;;;;;20435043;28;20062;-42
2021/10/25 06:11:19;;;;;;;10.05;4.55;;;9.60;99.90;;;;;;20436579;28;20063;-42
2021/10/25 06:21:20;;;;;;;7.40;3.22;;;9.60;99.90;;;;;;20409700;28;20676;-42
2021/10/25 06:31:21;;;;;;;10.90;3.38;;;9.60;99.90;;;;;;20425608;28;20058;-42
2021/10/25 06:41:23;;;;;;;8.73;3.55;;;9.60;99.90;;;;;;20425063;28;20433;-42
2021/10/25 06:51:25;;;;;;;11.57;4.60;;;9.50;99.90;;;;;;20427487;28;20405;-42
2021/10/25 07:01:26;;;;;;;9.05;4.05;;;9.50;99.90;;;;;;20410675;29;20062;-43
2021/10/25 07:11:28;;;;;;;11.75;4.13;;;9.50;99.90;;;;;;20423868;28;20091;-43
2021/10/25 07:21:52;;;;;;;7.93;3.63;;;9.50;99.90;;;;;;20432770;28;20047;-43
2021/10/25 08:13:07;;;;;;;13.30;5.10;;;9.70;99.90;;;;;;20415456;28;20043;-42
2021/10/25 08:23:08;;;;;;;13.97;5.30;;;9.90;99.90;;;;;;20420498;28;20544;-43
2021/10/25 08:43:13;;;;;;;12.30;5.53;;;9.90;99.90;;;;;;20415646;28;20418;-43
2021/10/25 08:53:15;;;;;;;16.00;6.28;;;10.00;99.90;;;;;;20428747;29;20043;-43
2021/10/25 09:03:17;;;;;;;9.98;4.82;;;10.10;99.90;;;;;;20425718;28;20047;-43
2021/10/25 09:13:24;;;;;;;13.65;5.00;;;10.10;99.90;;;;;;20427442;28;20047;-43
2021/10/25 09:23:49;;;;;;;12.45;4.97;;;10.30;99.90;;;;;;20433016;28;20062;-43
2021/10/25 09:33:55;;;;;;;13.00;5.32;;;10.40;99.90;;;;;;20408521;28;20044;-43
2021/10/25 09:54:28;;;;;;;20.55;4.97;;;10.50;99.90;;;;;;20417884;28;20046;-43
2021/10/25 10:04:30;;;;;;;15.45;6.22;;;10.50;99.90;;;;;;20431675;28;20055;-42
2021/10/25 10:14:31;;;;;;;15.43;5.85;;;10.60;99.90;;;;;;20427849;28;20069;-43
2021/10/25 10:24:34;;;;;;;15.65;6.95;;;10.70;99.90;;;;;;20437252;28;20051;-42
2021/10/25 10:34:43;;;;;;;17.50;6.60;;;10.70;99.90;;;;;;20431995;28;20089;-43
2021/10/25 10:44:52;;;;;;;17.55;7.00;;;10.90;99.90;;;;;;20435617;28;20051;-45
2021/10/25 10:55:05;;;;;;;18.10;7.85;;;11.00;99.90;;;;;;20433757;28;20040;-43
2021/10/25 11:05:09;;;;;;;18.92;8.10;;;11.10;99.90;;;;;;20445196;29;20047;-43
2021/10/25 11:15:14;;;;;;;21.00;8.57;;;11.20;99.90;;;;;;20427566;28;20469;-43
2021/10/25 11:25:15;;;;;;;15.07;7.05;;;11.40;99.90;;;;;;20424945;28;20063;-43
2021/10/25 11:35:18;;;;;;;19.08;7.57;;;11.40;99.90;;;;;;20419965;29;20055;-43
2021/10/25 11:45:24;;;;;;;13.68;6.03;;;11.50;99.90;;;;;;20425093;28;20056;-43
2021/10/25 11:55:27;;;;;;;13.73;6.38;;;11.50;99.90;;;;;;20419294;28;20059;-43
2021/10/25 12:05:28;;;;;;;23.50;7.90;;;11.50;99.90;;;;;;20416789;28;20341;-43
2021/10/25 12:15:35;;;;;;;19.75;7.93;;;11.50;99.90;;;;;;20415666;28;20059;-43
2021/10/25 12:25:37;;;;;;;13.63;5.75;;;11.70;99.90;;;;;;20419059;28;20047;-43
2021/10/25 12:35:45;;;;;;;16.83;7.00;;;11.70;99.90;;;;;;20418370;28;20525;-43
2021/10/25 12:46:05;;;;;;;17.77;6.38;;;11.80;99.90;;;;;;20425247;28;20051;-42
2021/10/25 12:56:06;;;;;;;14.50;6.43;;;11.90;99.90;;;;;;20416618;28;20482;-43
2021/10/25 13:06:09;;;;;;;17.83;6.32;;;11.80;99.90;;;;;;20416027;28;20051;-43
2021/10/25 13:16:16;;;;;;;14.35;6.13;;;11.70;99.90;;;;;;20426433;28;20065;-43
2021/10/25 13:26:17;;;;;;;15.03;5.37;;;11.80;99.90;;;;;;20420920;28;20059;-42
2021/10/25 13:36:19;;;;;;;18.38;6.22;;;11.90;99.90;;;;;;20413959;28;20055;-44
2021/10/25 13:46:21;;;;;;;16.23;7.32;;;12.00;99.90;;;;;;20415511;28;20174;-43
2021/10/25 13:56:22;;;;;;;18.83;7.40;;;12.10;99.90;;;;;;20433444;28;20449;-43
2021/10/25 14:06:27;;;;;;;13.63;6.03;;;12.30;99.90;;;;;;20429797;28;20035;-43
2021/10/25 14:16:33;;;;;;;17.02;7.20;;;12.30;99.90;;;;;;20427814;28;20094;-42
2021/10/25 14:26:35;;;;;;;13.52;5.85;;;12.30;99.90;;;;;;20421628;28;20049;-43
2021/10/25 14:36:37;;;;;;;14.48;7.28;;;12.40;99.90;;;;;;20420394;28;20056;-43
2021/10/25 14:47:01;;;;;;;13.35;6.13;;;12.40;99.90;;;;;;20323858;29;20060;-43
2021/10/25 14:57:04;;;;;;;21.65;7.70;;;12.40;99.90;;;;;;20319750;29;20067;-43
2021/10/25 15:07:06;;;;;;;17.58;7.10;;;12.50;99.90;;;;;;20347235;29;20515;-43
2021/10/25 15:17:07;;;;;;;12.93;5.95;;;12.50;99.90;;;;;;20327039;29;20103;-43
2021/10/25 15:27:14;;;;;;;18.05;6.35;;;12.50;99.90;;;;;;20307724;29;20036;-43
2021/10/25 15:37:18;;;;;;;13.80;6.10;;;12.50;99.90;;;;;;20318264;29;20145;-43
2021/10/25 15:47:21;;;;;;;16.95;8.15;;;12.50;99.90;;;;;;20343295;28;20055;-43
2021/10/25 15:57:24;;;;;;;17.05;6.97;;;12.50;99.90;;;;;;20344375;28;20056;-43
2021/10/25 16:07:25;;;;;;;16.27;7.32;;;12.60;99.90;;;;;;20346979;29;20418;-43
2021/10/25 16:17:26;;;;;;;18.88;8.25;;;12.60;99.90;;;;;;20319341;29;20426;-43
2021/10/25 16:27:28;;;;;;;16.63;6.55;;;12.60;99.90;;;;;;20323506;29;20032;-43
2021/10/25 16:37:29;;;;;;;17.40;7.55;;;12.60;99.90;;;;;;20316209;29;20384;-43
2021/10/25 16:47:30;;;;;;;16.40;6.93;;;12.50;99.90;;;;;;20343175;28;20529;-43
2021/10/25 17:18:12;;;;;;;15.40;7.03;;;12.40;99.90;;;;;;20316796;29;20058;-43
2021/10/25 17:28:14;;;;;;;16.17;6.85;;;12.30;99.90;;;;;;20357605;28;20531;-43
2021/10/25 17:38:15;;;;;;;16.02;5.80;;;12.30;99.90;;;;;;20402011;28;20406;-43
2021/10/25 17:48:16;;;;;;;13.38;5.43;;;12.50;99.90;;;;;;20429031;28;20036;-43
2021/10/25 17:58:19;;;;;;;12.80;5.70;;;12.40;99.90;;;;;;20423909;28;20151;-43
2021/10/25 18:08:24;;;;;;;14.63;6.43;;;12.30;99.90;;;;;;20420094;28;20693;-43
2021/10/25 18:18:27;;;;;;;15.13;6.18;;;12.20;99.90;;;;;;20410576;28;20068;-43
2021/10/25 18:28:30;;;;;;;14.10;5.22;;;12.10;99.90;;;;;;20423325;28;20047;-43
2021/10/25 18:38:31;;;;;;;13.95;5.55;;;12.20;99.90;;;;;;20401886;28;20081;-43
2021/10/25 18:48:34;;;;;;;15.40;6.05;;;12.20;99.90;;;;;;20399077;28;20070;-43
2021/10/25 18:58:35;;;;;;;13.32;5.63;;;12.20;99.90;;;;;;20428225;28;20580;-43
2021/10/25 19:08:38;;;;;;;14.82;6.40;;;12.30;99.90;;;;;;20443417;28;20514;-43
2021/10/25 19:18:39;;;;;;;15.27;6.63;;;12.40;99.90;;;;;;20430927;28;20055;-43
2021/10/25 19:28:41;;;;;;;14.00;5.60;;;12.40;99.90;;;;;;20413658;29;20047;-43
2021/10/25 19:38:46;;;;;;;14.88;6.32;;;12.30;99.90;;;;;;20423556;28;20069;-43
2021/10/25 19:48:48;;;;;;;15.00;6.78;;;12.10;99.90;;;;;;20417924;28;20062;-43
2021/10/25 19:58:49;;;;;;;13.40;6.13;;;12.10;99.90;;;;;;20416645;28;20493;-43
2021/10/25 20:08:50;;;;;;;13.38;5.55;;;12.10;99.90;;;;;;20408922;28;20043;-43
2021/10/25 20:18:51;;;;;;;16.38;6.25;;;12.10;99.90;;;;;;20420576;28;20542;-43
2021/10/25 20:28:52;;;;;;;13.90;6.30;;;12.10;99.90;;;;;;20415598;28;20502;-43
2021/10/25 20:38:53;;;;;;;16.25;7.63;;;12.10;99.90;;;;;;20402936;28;20067;-43
2021/10/25 20:48:55;;;;;;;13.93;6.57;;;12.10;99.90;;;;;;20408300;28;20058;-43
2021/10/25 20:58:56;;;;;;;18.30;6.85;;;11.80;99.90;;;;;;20401049;28;20070;-43
2021/10/25 21:08:57;;;;;;;16.50;6.57;;;11.70;99.90;;;;;;20416442;28;20055;-43
2021/10/25 21:19:00;;;;;;;19.05;6.88;;;11.60;99.90;;;;;;20421669;28;20051;-43
2021/10/25 21:29:04;;;;;;;15.38;6.40;;;11.70;99.90;;;;;;20422101;28;20032;-43
2021/10/25 21:39:05;;;;;;;18.13;8.20;;;11.70;99.90;;;;;;20432876;28;20055;-43
2021/10/25 21:49:07;;;;;;;14.38;6.03;;;11.70;99.90;;;;;;20425795;28;20062;-43
2021/10/25 21:59:09;;;;;;;18.25;6.32;;;11.60;99.90;;;;;;20405835;28;20046;-43
2021/10/25 22:09:10;;;;;;;15.07;6.70;;;11.70;99.90;;;;;;20413039;28;20043;-43
2021/10/25 22:19:11;;;;;;;16.17;6.15;;;11.70;99.90;;;;;;20427951;28;20426;-43
2021/10/25 22:29:12;;;;;;;14.50;6.13;;;11.70;99.90;;;;;;20419847;28;20039;-43
2021/10/25 22:39:13;;;;;;;16.60;6.22;;;11.80;99.90;;;;;;20421144;28;20051;-43
2021/10/25 22:49:15;;;;;;;12.80;6.18;;;11.80;99.90;;;;;;20408452;28;20878;-43
2021/10/25 22:59:16;;;;;;;17.10;6.63;;;11.80;99.90;;;;;;20437690;28;20059;-43
2021/10/25 23:09:17;;;;;;;17.33;7.75;;;11.80;99.90;;;;;;20434999;28;20043;-43
2021/10/25 23:19:18;;;;;;;19.30;7.50;;;11.90;99.90;;;;;;20416103;28;20055;-43
2021/10/25 23:29:19;;;;;;;18.25;6.47;;;11.80;99.90;;;;;;20425245;28;20051;-43
2021/10/25 23:39:21;;;;;;;17.58;6.05;;;11.80;99.90;;;;;;20412041;28;20066;-43
2021/10/25 23:49:22;;;;;;;13.30;5.72;;;11.80;99.90;;;;;;20418632;29;20032;-43
2021/10/25 23:59:23;;;;;;;23.75;6.53;;;11.70;99.90;;;;;;20434540;28;20517;-43
